createdAt,value
2022-09-22T00:01:00.074Z,9.94
2022-09-22T00:03:31.198Z,9.92
2022-09-22T00:06:01.465Z,9.87
2022-09-22T00:08:32.195Z,9.87
2022-09-22T00:11:01.990Z,9.84
2022-09-22T00:13:29.884Z,9.79
2022-09-22T00:15:57.999Z,9.78
2022-09-22T00:18:25.847Z,9.77
2022-09-22T00:20:53.869Z,9.78
2022-09-22T00:23:25.444Z,9.77
2022-09-22T00:25:54.558Z,9.76
2022-09-22T00:28:22.812Z,9.75
2022-09-22T00:30:50.668Z,9.75
2022-09-22T00:33:21.848Z,9.75
2022-09-22T00:35:57.993Z,9.72
2022-09-22T00:38:25.896Z,9.70
2022-09-22T00:41:00.219Z,9.67
2022-09-22T00:43:28.845Z,9.62
2022-09-22T00:46:00.963Z,9.48
2022-09-22T00:48:32.674Z,9.60
2022-09-22T00:51:05.094Z,9.61
2022-09-22T00:53:33.444Z,9.59
2022-09-22T00:56:06.346Z,9.62
2022-09-22T00:58:38.245Z,9.60
2022-09-22T01:01:07.250Z,9.57
2022-09-22T01:03:37.901Z,9.56
2022-09-22T01:06:09.393Z,9.56
2022-09-22T01:08:38.510Z,9.48
2022-09-22T01:11:09.263Z,9.51
2022-09-22T01:13:44.965Z,9.47
2022-09-22T01:16:30.397Z,9.49
2022-09-22T01:19:17.430Z,9.45
2022-09-22T01:21:52.139Z,9.44
2022-09-22T01:24:55.063Z,9.41
2022-09-22T01:27:50.277Z,9.36
2022-09-22T01:30:22.318Z,9.34
2022-09-22T01:33:00.671Z,9.32
2022-09-22T01:35:33.328Z,9.30
2022-09-22T01:38:11.417Z,9.30
2022-09-22T01:40:48.883Z,9.28
2022-09-22T01:43:27.882Z,9.26
2022-09-22T01:45:57.058Z,9.26
2022-09-22T01:48:28.742Z,9.24
2022-09-22T01:51:01.625Z,9.25
2022-09-22T01:53:34.648Z,9.24
2022-09-22T01:56:07.906Z,9.22
2022-09-22T01:58:40.436Z,9.18
2022-09-22T02:01:14.914Z,9.19
2022-09-22T02:03:47.870Z,9.19
2022-09-22T02:06:22.527Z,9.17
2022-09-22T02:08:55.984Z,9.13
2022-09-22T02:11:24.901Z,9.14
2022-09-22T02:13:53.550Z,9.14
2022-09-22T02:16:24.867Z,9.15
2022-09-22T02:18:57.019Z,9.14
2022-09-22T02:21:27.835Z,9.14
2022-09-22T02:23:56.458Z,9.13
2022-09-22T02:26:27.030Z,9.13
2022-09-22T02:28:59.601Z,8.98
2022-09-22T02:31:33.291Z,9.05
2022-09-22T02:34:02.610Z,9.03
2022-09-22T02:36:51.778Z,8.98
2022-09-22T02:39:25.292Z,8.98
2022-09-22T02:42:16.638Z,8.93
2022-09-22T02:44:51.264Z,8.89
2022-09-22T02:47:24.615Z,8.86
2022-09-22T02:49:53.569Z,8.84
2022-09-22T02:52:25.257Z,8.76
2022-09-22T02:54:54.416Z,8.72
2022-09-22T02:57:22.924Z,8.65
2022-09-22T02:59:50.793Z,8.70
2022-09-22T03:02:22.936Z,8.71
2022-09-22T03:04:51.283Z,8.75
2022-09-22T03:07:20.747Z,8.73
2022-09-22T03:09:48.566Z,8.66
2022-09-22T03:12:16.449Z,8.64
2022-09-22T03:14:44.974Z,8.60
2022-09-22T03:17:20.192Z,8.62
2022-09-22T03:19:49.382Z,8.63
2022-09-22T03:22:17.574Z,8.61
2022-09-22T03:24:59.275Z,8.62
2022-09-22T03:27:27.599Z,8.56
2022-09-22T03:29:55.784Z,8.59
2022-09-22T03:32:24.068Z,8.57
2022-09-22T03:34:53.314Z,8.57
2022-09-22T03:37:21.099Z,8.58
2022-09-22T03:39:48.986Z,8.60
2022-09-22T03:42:25.980Z,8.51
2022-09-22T03:44:53.803Z,8.54
2022-09-22T03:47:31.027Z,8.58
2022-09-22T03:50:04.246Z,8.59
2022-09-22T03:52:33.447Z,8.58
2022-09-22T03:55:02.918Z,8.59
2022-09-22T03:57:31.078Z,8.59
2022-09-22T03:59:59.029Z,8.54
2022-09-22T04:02:27.263Z,8.52
2022-09-22T04:04:55.033Z,8.53
2022-09-22T04:07:24.462Z,8.57
2022-09-22T04:09:52.478Z,8.57
2022-09-22T04:12:23.095Z,8.59
2022-09-22T04:14:50.877Z,8.57
2022-09-22T04:17:20.576Z,8.58
2022-09-22T04:19:48.614Z,8.47
2022-09-22T04:22:18.657Z,8.54
2022-09-22T04:24:50.922Z,8.52
2022-09-22T04:27:20.595Z,8.47
2022-09-22T04:29:52.061Z,8.48
2022-09-22T04:32:22.519Z,8.48
2022-09-22T04:34:51.019Z,8.47
2022-09-22T04:37:18.807Z,8.42
2022-09-22T04:39:55.546Z,8.43
2022-09-22T04:42:23.839Z,8.41
2022-09-22T04:44:51.681Z,8.37
2022-09-22T04:47:19.656Z,8.34
2022-09-22T04:49:47.629Z,8.35
2022-09-22T04:52:17.820Z,8.35
2022-09-22T04:54:45.787Z,8.35
2022-09-22T04:57:18.408Z,8.38
2022-09-22T04:59:48.917Z,8.39
2022-09-22T05:02:16.878Z,8.43
2022-09-22T05:04:44.736Z,8.41
2022-09-22T05:07:12.603Z,8.37
2022-09-22T05:09:40.502Z,8.35
2022-09-22T05:12:11.242Z,8.36
2022-09-22T05:14:40.800Z,8.36
2022-09-22T05:17:08.639Z,8.39
2022-09-22T05:19:43.978Z,8.40
2022-09-22T05:22:11.858Z,8.43
2022-09-22T05:24:42.467Z,8.44
2022-09-22T05:27:10.383Z,8.45
2022-09-22T05:29:38.566Z,8.47
2022-09-22T05:32:07.910Z,8.52
2022-09-22T05:34:35.795Z,8.48
2022-09-22T05:37:03.587Z,8.53
2022-09-22T05:39:31.422Z,8.56
2022-09-22T05:42:02.361Z,8.55
2022-09-22T05:44:30.230Z,8.60
2022-09-22T05:46:58.194Z,8.64
2022-09-22T05:49:33.713Z,8.71
2022-09-22T05:52:02.478Z,8.79
2022-09-22T05:54:30.452Z,8.92
2022-09-22T05:56:58.403Z,9.01
2022-09-22T05:59:32.531Z,9.04
2022-09-22T06:04:49.229Z,9.31
2022-09-22T06:07:20.213Z,9.34
2022-09-22T06:09:48.485Z,9.35
2022-09-22T06:12:18.655Z,9.31
2022-09-22T06:14:46.915Z,9.32
2022-09-22T06:17:17.774Z,9.33
2022-09-22T06:19:49.852Z,9.34
2022-09-22T06:22:18.516Z,9.35
2022-09-22T06:24:46.429Z,9.39
2022-09-22T06:27:23.499Z,9.41
2022-09-22T06:29:51.343Z,9.47
2022-09-22T06:32:19.391Z,9.50
2022-09-22T06:34:48.563Z,9.58
2022-09-22T06:37:16.869Z,9.66
2022-09-22T06:39:49.171Z,9.76
2022-09-22T06:42:24.963Z,9.86
2022-09-22T06:44:53.718Z,9.95
2022-09-22T06:47:21.484Z,9.98
2022-09-22T06:49:50.730Z,10.01
2022-09-22T06:52:18.421Z,10.03
2022-09-22T06:54:46.184Z,10.09
2022-09-22T06:57:17.582Z,10.13
2022-09-22T06:59:48.362Z,10.18
2022-09-22T07:02:17.054Z,10.24
2022-09-22T07:04:55.771Z,10.31
2022-09-22T07:07:27.081Z,10.38
2022-09-22T07:09:55.298Z,10.49
2022-09-22T07:12:25.211Z,10.57
2022-09-22T07:14:57.273Z,10.48
2022-09-22T07:17:29.790Z,10.68
2022-09-22T07:20:02.195Z,10.77
2022-09-22T07:22:29.959Z,10.87
2022-09-22T07:25:02.328Z,10.97
2022-09-22T07:27:30.110Z,11.09
2022-09-22T07:30:00.104Z,11.20
2022-09-22T07:32:32.387Z,11.30
2022-09-22T07:35:04.665Z,11.40
2022-09-22T07:37:35.975Z,11.51
2022-09-22T07:40:10.311Z,11.61
2022-09-22T07:42:38.126Z,11.72
2022-09-22T07:45:13.888Z,11.87
2022-09-22T07:48:01.145Z,11.94
2022-09-22T07:50:30.873Z,12.04
2022-09-22T07:52:58.891Z,12.08
2022-09-22T07:55:26.779Z,12.11
2022-09-22T07:57:56.217Z,12.15
2022-09-22T08:00:24.832Z,12.26
2022-09-22T08:02:55.958Z,12.32
2022-09-22T08:05:24.968Z,12.37
2022-09-22T08:07:57.147Z,12.45
2022-09-22T08:10:26.269Z,12.55
2022-09-22T08:12:54.833Z,12.66
2022-09-22T08:15:28.936Z,12.82
2022-09-22T08:17:58.080Z,12.93
2022-09-22T08:20:28.935Z,13.08
2022-09-22T08:23:01.472Z,13.23
2022-09-22T08:25:30.363Z,13.35
2022-09-22T08:28:00.216Z,13.45
2022-09-22T08:30:28.051Z,13.49
2022-09-22T08:32:56.112Z,13.54
2022-09-22T08:35:24.241Z,13.59
2022-09-22T08:37:52.859Z,13.68
2022-09-22T08:40:24.057Z,13.82
2022-09-22T08:42:54.451Z,13.98
2022-09-22T08:45:33.119Z,14.11
2022-09-22T08:48:30.247Z,14.22
2022-09-22T08:51:27.500Z,14.24
2022-09-22T08:54:00.911Z,14.42
2022-09-22T08:56:43.421Z,14.55
2022-09-22T08:59:23.455Z,14.65
2022-09-22T09:02:04.987Z,14.76
2022-09-22T09:05:04.852Z,14.89
2022-09-22T09:07:58.077Z,15.00
2022-09-22T09:10:48.765Z,15.09
2022-09-22T09:13:59.925Z,15.17
2022-09-22T09:16:44.345Z,15.25
2022-09-22T09:19:20.055Z,15.31
2022-09-22T09:22:25.013Z,15.41
2022-09-22T09:27:50.359Z,15.61
2022-09-22T09:30:24.888Z,15.70
2022-09-22T09:32:56.502Z,15.66
2022-09-22T09:35:28.985Z,15.65
2022-09-22T09:37:59.200Z,15.73
2022-09-22T09:40:30.293Z,15.83
2022-09-22T09:43:03.599Z,15.96
2022-09-22T09:45:38.453Z,16.05
2022-09-22T09:48:27.249Z,16.14
2022-09-22T09:51:03.511Z,16.16
2022-09-22T09:53:33.471Z,16.23
2022-09-22T09:56:24.208Z,16.27
2022-09-22T09:59:17.110Z,16.29
2022-09-22T10:02:00.023Z,16.38
2022-09-22T10:04:33.842Z,16.29
2022-09-22T10:07:17.172Z,16.41
2022-09-22T10:09:48.270Z,16.49
2022-09-22T10:12:26.262Z,16.68
2022-09-22T10:14:56.057Z,16.91
2022-09-22T10:17:29.415Z,17.05
2022-09-22T10:20:21.520Z,17.09
2022-09-22T10:22:54.242Z,17.05
2022-09-22T10:25:27.268Z,16.90
2022-09-22T10:28:04.537Z,16.98
2022-09-22T10:30:37.717Z,17.00
2022-09-22T10:33:16.255Z,17.19
2022-09-22T10:35:47.847Z,17.40
2022-09-22T10:38:21.485Z,17.61
2022-09-22T10:40:56.368Z,17.67
2022-09-22T10:43:37.024Z,17.57
2022-09-22T10:46:43.072Z,17.57
2022-09-22T10:49:28.868Z,17.68
2022-09-22T10:52:09.842Z,17.64
2022-09-22T10:55:10.670Z,17.61
2022-09-22T10:58:13.395Z,17.67
2022-09-22T11:00:43.452Z,17.72
2022-09-22T11:03:47.065Z,17.72
2022-09-22T11:09:56.460Z,17.40
2022-09-22T11:12:43.799Z,17.32
2022-09-22T11:15:26.982Z,17.46
2022-09-22T11:18:15.502Z,17.80
2022-09-22T11:20:46.221Z,18.01
2022-09-22T11:23:53.637Z,17.90
2022-09-22T11:26:48.114Z,18.01
2022-09-22T11:29:59.603Z,18.04
2022-09-22T11:33:03.285Z,18.05
2022-09-22T11:35:51.078Z,18.22
2022-09-22T11:38:40.815Z,18.32
2022-09-22T11:41:34.786Z,18.31
2022-09-22T11:44:24.045Z,18.33
2022-09-22T11:47:48.882Z,18.49
2022-09-22T11:50:48.687Z,18.96
2022-09-22T11:53:48.801Z,19.09
2022-09-22T11:56:43.580Z,19.23
2022-09-22T11:59:18.298Z,19.26
2022-09-22T12:01:49.560Z,19.07
2022-09-22T12:04:24.799Z,18.88
2022-09-22T12:06:56.966Z,18.74
2022-09-22T12:12:34.303Z,18.63
2022-09-22T12:15:17.202Z,18.92
2022-09-22T12:17:56.952Z,19.07
2022-09-22T12:20:37.501Z,18.75
2022-09-22T12:23:31.129Z,18.81
2022-09-22T12:26:05.092Z,18.98
2022-09-22T12:28:38.797Z,19.19
2022-09-22T12:31:12.695Z,19.46
2022-09-22T12:33:59.030Z,19.65
2022-09-22T12:36:30.985Z,19.55
2022-09-22T12:39:18.157Z,19.41
2022-09-22T12:41:49.706Z,19.46
2022-09-22T12:44:22.102Z,19.63
2022-09-22T12:46:51.024Z,19.67
2022-09-22T12:49:23.757Z,19.60
2022-09-22T12:51:52.427Z,19.39
2022-09-22T12:54:45.724Z,19.12
2022-09-22T12:57:28.771Z,19.02
2022-09-22T12:59:59.831Z,18.84
2022-09-22T13:02:30.928Z,18.56
2022-09-22T13:05:46.416Z,18.49
2022-09-22T13:08:47.569Z,18.83
2022-09-22T13:11:15.569Z,19.08
2022-09-22T13:13:46.782Z,19.10
2022-09-22T13:16:36.373Z,18.90
2022-09-22T13:19:09.842Z,19.05
2022-09-22T13:21:41.804Z,19.11
2022-09-22T13:24:26.577Z,19.27
2022-09-22T13:27:06.257Z,19.24
2022-09-22T13:29:36.421Z,18.78
2022-09-22T13:32:26.611Z,18.40
2022-09-22T13:34:56.853Z,18.27
2022-09-22T13:37:25.870Z,18.30
2022-09-22T13:39:59.394Z,18.45
2022-09-22T13:42:33.018Z,18.71
2022-09-22T13:45:28.131Z,18.54
2022-09-22T13:48:02.687Z,18.65
2022-09-22T13:50:33.316Z,18.93
2022-09-22T13:53:15.433Z,19.11
2022-09-22T13:55:46.691Z,19.16
2022-09-22T13:58:34.455Z,19.03
2022-09-22T14:01:13.896Z,19.10
2022-09-22T14:03:43.129Z,18.95
2022-09-22T14:06:16.180Z,18.69
2022-09-22T14:08:55.076Z,18.56
2022-09-22T14:11:25.773Z,18.53
2022-09-22T14:14:06.828Z,18.70
2022-09-22T14:16:43.948Z,18.63
2022-09-22T14:19:18.023Z,18.50
2022-09-22T14:21:51.350Z,18.46
2022-09-22T14:24:19.948Z,18.61
2022-09-22T14:26:50.768Z,18.81
2022-09-22T14:29:26.141Z,18.93
2022-09-22T14:32:13.164Z,18.82
2022-09-22T14:34:48.444Z,18.88
2022-09-22T14:37:23.440Z,18.93
2022-09-22T14:39:56.935Z,19.00
2022-09-22T14:42:29.426Z,19.05
2022-09-22T14:45:18.485Z,19.09
2022-09-22T14:47:48.307Z,19.08
2022-09-22T14:50:20.054Z,18.98
2022-09-22T14:53:02.039Z,18.88
2022-09-22T14:55:35.871Z,18.87
2022-09-22T14:58:07.367Z,18.75
2022-09-22T15:00:54.307Z,18.56
2022-09-22T15:03:29.164Z,18.39
2022-09-22T15:06:07.693Z,18.27
2022-09-22T15:08:36.261Z,18.26
2022-09-22T15:11:04.480Z,18.25
2022-09-22T15:13:39.877Z,18.15
2022-09-22T15:16:23.480Z,18.13
2022-09-22T15:18:53.036Z,18.09
2022-09-22T15:21:49.832Z,18.19
2022-09-22T15:24:26.794Z,18.27
2022-09-22T15:27:00.835Z,18.31
2022-09-22T15:29:32.342Z,18.27
2022-09-22T15:32:04.182Z,18.02
2022-09-22T15:34:33.650Z,18.03
2022-09-22T15:37:01.493Z,17.94
2022-09-22T15:39:29.600Z,17.86
2022-09-22T15:42:00.760Z,17.81
2022-09-22T15:44:28.704Z,17.83
2022-09-22T15:47:01.176Z,17.78
2022-09-22T15:49:31.924Z,17.81
2022-09-22T15:52:15.241Z,17.78
2022-09-22T15:54:45.784Z,17.72
2022-09-22T15:57:17.130Z,17.68
2022-09-22T15:59:46.011Z,17.65
2022-09-22T16:02:32.432Z,17.57
2022-09-22T16:05:26.484Z,17.52
2022-09-22T16:07:56.865Z,17.41
2022-09-22T16:10:27.808Z,17.31
2022-09-22T16:13:12.944Z,17.20
2022-09-22T16:15:41.565Z,17.13
2022-09-22T16:18:10.139Z,17.10
2022-09-22T16:20:40.943Z,17.03
2022-09-22T16:23:10.999Z,16.93
2022-09-22T16:25:39.198Z,16.88
2022-09-22T16:28:07.470Z,16.79
2022-09-22T16:30:38.592Z,16.73
2022-09-22T16:33:06.778Z,16.66
2022-09-22T16:35:34.743Z,16.60
2022-09-22T16:38:07.924Z,16.53
2022-09-22T16:40:39.739Z,16.48
2022-09-22T16:43:11.024Z,16.43
2022-09-22T16:46:02.938Z,16.37
2022-09-22T16:48:36.080Z,16.30
2022-09-22T16:51:09.129Z,16.25
2022-09-22T16:53:37.167Z,16.06
2022-09-22T16:56:06.817Z,16.15
2022-09-22T16:58:34.784Z,16.10
2022-09-22T17:01:06.283Z,16.09
2022-09-22T17:03:39.138Z,16.04
2022-09-22T17:06:09.152Z,15.97
2022-09-22T17:08:38.701Z,15.92
2022-09-22T17:11:08.859Z,15.77
2022-09-22T17:13:37.859Z,15.80
2022-09-22T17:16:30.255Z,15.74
2022-09-22T17:19:02.274Z,15.67
2022-09-22T17:21:35.559Z,15.58
2022-09-22T17:24:09.316Z,15.59
2022-09-22T17:26:41.749Z,15.55
2022-09-22T17:29:13.340Z,15.51
2022-09-22T17:31:41.378Z,15.48
2022-09-22T17:34:10.234Z,15.47
2022-09-22T17:36:38.902Z,15.41
2022-09-22T17:39:13.480Z,15.36
2022-09-22T17:41:47.054Z,15.30
2022-09-22T17:44:21.571Z,15.24
2022-09-22T17:47:09.842Z,15.19
2022-09-22T17:49:58.493Z,15.14
2022-09-22T17:52:44.479Z,15.05
2022-09-22T17:55:21.039Z,14.91
2022-09-22T17:58:02.224Z,14.97
2022-09-22T18:00:36.145Z,14.93
2022-09-22T18:03:04.836Z,14.92
2022-09-22T18:05:41.814Z,14.90
2022-09-22T18:08:44.508Z,14.88
2022-09-22T18:11:21.046Z,14.83
2022-09-22T18:13:56.184Z,14.77
2022-09-22T18:16:30.194Z,14.70
2022-09-22T18:18:58.362Z,14.60
2022-09-22T18:21:26.845Z,14.54
2022-09-22T18:23:59.222Z,14.46
2022-09-22T18:29:21.053Z,14.33
2022-09-22T18:31:50.033Z,14.27
2022-09-22T18:34:20.690Z,14.21
2022-09-22T18:36:48.865Z,14.17
2022-09-22T18:39:17.345Z,14.13
2022-09-22T18:41:54.874Z,14.07
2022-09-22T18:44:29.059Z,13.99
2022-09-22T18:47:01.356Z,13.93
2022-09-22T18:49:44.296Z,13.91
2022-09-22T18:52:26.305Z,13.87
2022-09-22T18:54:54.914Z,13.84
2022-09-22T18:57:24.454Z,13.79
2022-09-22T19:00:06.904Z,13.77
2022-09-22T19:02:39.401Z,13.73
2022-09-22T19:05:13.546Z,13.70
2022-09-22T19:07:44.216Z,13.64
2022-09-22T19:10:14.309Z,13.62
2022-09-22T19:12:43.128Z,13.58
2022-09-22T19:15:15.455Z,13.55
2022-09-22T19:17:44.792Z,13.47
2022-09-22T19:20:23.861Z,13.47
2022-09-22T19:22:52.750Z,13.43
2022-09-22T19:25:27.776Z,13.37
2022-09-22T19:27:56.258Z,13.24
2022-09-22T19:30:39.741Z,13.32
2022-09-22T19:33:10.185Z,13.26
2022-09-22T19:35:39.487Z,13.25
2022-09-22T19:38:12.291Z,13.23
2022-09-22T19:40:40.344Z,13.18
2022-09-22T19:43:08.255Z,13.13
2022-09-22T19:45:38.104Z,13.08
2022-09-22T19:48:09.918Z,13.03
2022-09-22T19:50:42.489Z,13.00
2022-09-22T19:53:13.044Z,12.95
2022-09-22T19:55:40.917Z,12.92
2022-09-22T19:58:08.884Z,12.86
2022-09-22T20:00:43.724Z,12.86
2022-09-22T20:03:15.469Z,12.83
2022-09-22T20:05:43.414Z,12.80
2022-09-22T20:08:15.617Z,12.77
2022-09-22T20:10:43.863Z,12.74
2022-09-22T20:13:32.097Z,12.72
2022-09-22T20:16:01.840Z,12.60
2022-09-22T20:18:31.694Z,12.66
2022-09-22T20:21:02.697Z,12.65
2022-09-22T20:23:30.558Z,12.62
2022-09-22T20:25:58.410Z,12.59
2022-09-22T20:28:26.454Z,12.57
2022-09-22T20:30:54.475Z,12.50
2022-09-22T20:33:26.813Z,12.53
2022-09-22T20:35:58.895Z,12.50
2022-09-22T20:38:33.220Z,12.48
2022-09-22T20:41:04.525Z,12.45
2022-09-22T20:43:32.363Z,12.42
2022-09-22T20:46:01.959Z,12.39
2022-09-22T20:48:33.181Z,12.35
2022-09-22T20:51:02.806Z,12.28
2022-09-22T20:53:33.543Z,12.27
2022-09-22T20:56:02.288Z,12.23
2022-09-22T20:58:32.360Z,12.18
2022-09-22T21:01:00.657Z,12.16
2022-09-22T21:03:28.681Z,12.06
2022-09-22T21:06:01.727Z,11.93
2022-09-22T21:08:50.633Z,12.06
2022-09-22T21:11:20.634Z,11.99
2022-09-22T21:14:01.439Z,11.97
2022-09-22T21:16:29.881Z,11.95
2022-09-22T21:19:02.112Z,11.98
2022-09-22T21:21:33.480Z,12.00
2022-09-22T21:24:02.245Z,12.03
2022-09-22T21:26:31.221Z,12.04
2022-09-22T21:28:59.520Z,12.01
2022-09-22T21:31:28.440Z,12.01
2022-09-22T21:33:56.491Z,11.99
2022-09-22T21:36:25.439Z,12.03
2022-09-22T21:38:58.347Z,12.07
2022-09-22T21:41:31.287Z,12.11
2022-09-22T21:43:59.967Z,12.16
2022-09-22T21:46:30.013Z,12.15
2022-09-22T21:48:59.217Z,12.29
2022-09-22T21:51:27.507Z,12.35
2022-09-22T21:53:59.891Z,12.38
2022-09-22T21:56:30.000Z,12.36
2022-09-22T21:58:58.329Z,12.35
2022-09-22T22:01:28.047Z,12.37
2022-09-22T22:03:57.438Z,12.36
2022-09-22T22:06:27.280Z,12.24
2022-09-22T22:09:01.372Z,12.34
2022-09-22T22:11:34.817Z,12.32
2022-09-22T22:14:07.430Z,12.31
2022-09-22T22:16:37.454Z,12.30
2022-09-22T22:19:06.307Z,12.27
2022-09-22T22:21:34.871Z,12.24
2022-09-22T22:24:31.734Z,12.20
2022-09-22T22:27:05.789Z,12.13
2022-09-22T22:29:35.246Z,12.14
2022-09-22T22:32:12.126Z,12.14
2022-09-22T22:34:39.874Z,12.11
2022-09-22T22:37:10.939Z,11.86
2022-09-22T22:39:38.846Z,12.05
2022-09-22T22:42:08.592Z,12.02
2022-09-22T22:44:36.441Z,11.98
2022-09-22T22:47:12.235Z,11.96
2022-09-22T22:49:43.013Z,11.86
2022-09-22T22:52:10.746Z,11.95
2022-09-22T22:54:39.597Z,11.94
2022-09-22T22:57:08.869Z,11.94
2022-09-22T22:59:36.654Z,11.94
2022-09-22T23:02:04.472Z,11.95
2022-09-22T23:04:35.681Z,11.91
2022-09-22T23:07:03.528Z,12.00
2022-09-22T23:09:31.316Z,11.99
2022-09-22T23:12:02.543Z,11.90
2022-09-22T23:14:31.706Z,11.92
2022-09-22T23:17:07.644Z,11.89
2022-09-22T23:19:37.757Z,11.82
2022-09-22T23:22:08.777Z,11.75
2022-09-22T23:24:36.652Z,11.65
2022-09-22T23:27:04.710Z,11.57
2022-09-22T23:29:34.306Z,11.49
2022-09-22T23:32:02.407Z,11.43
2022-09-22T23:34:30.239Z,11.41
2022-09-22T23:36:58.246Z,11.37
2022-09-22T23:39:28.682Z,11.35
2022-09-22T23:41:56.452Z,11.33
2022-09-22T23:44:24.223Z,11.32
2022-09-22T23:46:53.687Z,11.27
2022-09-22T23:49:21.574Z,11.26
2022-09-22T23:51:51.362Z,11.23
2022-09-22T23:54:28.078Z,11.26
2022-09-22T23:56:56.606Z,11.25
2022-09-22T23:59:24.402Z,11.27
